sensor_id;sensor_type;location;lat;lon;timestamp;P1;durP1;ratioP1;P2;durP2;ratioP2
51862;SDS011;37900;52.996;6.278;2023-03-23T00:01:06;2.97;;;1.45;;
51862;SDS011;37900;52.996;6.278;2023-03-23T00:03:38;2.35;;;1.35;;
51862;SDS011;37900;52.996;6.278;2023-03-23T00:08:35;3.25;;;1.60;;
51862;SDS011;37900;52.996;6.278;2023-03-23T00:11:05;2.60;;;1.70;;
51862;SDS011;37900;52.996;6.278;2023-03-23T00:13:32;3.15;;;1.42;;
51862;SDS011;37900;52.996;6.278;2023-03-23T00:15:58;3.17;;;1.50;;
51862;SDS011;37900;52.996;6.278;2023-03-23T00:18:24;2.60;;;1.77;;
51862;SDS011;37900;52.996;6.278;2023-03-23T00:20:54;2.28;;;1.38;;
51862;SDS011;37900;52.996;6.278;2023-03-23T00:23:22;1.55;;;1.40;;
51862;SDS011;37900;52.996;6.278;2023-03-23T00:25:54;2.38;;;1.92;;
51862;SDS011;37900;52.996;6.278;2023-03-23T00:28:22;3.22;;;1.77;;
51862;SDS011;37900;52.996;6.278;2023-03-23T00:31:03;1.88;;;1.30;;
51862;SDS011;37900;52.996;6.278;2023-03-23T00:33:32;4.18;;;1.70;;
51862;SDS011;37900;52.996;6.278;2023-03-23T00:36:12;3.30;;;1.85;;
51862;SDS011;37900;52.996;6.278;2023-03-23T00:38:39;3.63;;;1.70;;
51862;SDS011;37900;52.996;6.278;2023-03-23T00:41:07;2.58;;;1.52;;
51862;SDS011;37900;52.996;6.278;2023-03-23T00:43:33;2.92;;;1.42;;
51862;SDS011;37900;52.996;6.278;2023-03-23T00:46:02;2.03;;;1.27;;
51862;SDS011;37900;52.996;6.278;2023-03-23T00:48:33;2.10;;;1.38;;
51862;SDS011;37900;52.996;6.278;2023-03-23T00:51:00;2.78;;;1.50;;
51862;SDS011;37900;52.996;6.278;2023-03-23T00:53:34;2.00;;;1.33;;
51862;SDS011;37900;52.996;6.278;2023-03-23T00:56:00;1.65;;;1.23;;
51862;SDS011;37900;52.996;6.278;2023-03-23T00:58:25;2.22;;;1.40;;
51862;SDS011;37900;52.996;6.278;2023-03-23T01:00:51;2.10;;;1.15;;
51862;SDS011;37900;52.996;6.278;2023-03-23T01:03:17;2.15;;;1.60;;
51862;SDS011;37900;52.996;6.278;2023-03-23T01:05:43;1.38;;;1.17;;
51862;SDS011;37900;52.996;6.278;2023-03-23T01:08:12;1.90;;;1.48;;
51862;SDS011;37900;52.996;6.278;2023-03-23T01:10:39;2.35;;;1.20;;
51862;SDS011;37900;52.996;6.278;2023-03-23T01:13:05;2.28;;;1.10;;
51862;SDS011;37900;52.996;6.278;2023-03-23T01:15:32;2.03;;;1.33;;
51862;SDS011;37900;52.996;6.278;2023-03-23T01:17:58;2.25;;;1.50;;
51862;SDS011;37900;52.996;6.278;2023-03-23T01:20:24;2.78;;;1.63;;
51862;SDS011;37900;52.996;6.278;2023-03-23T01:22:51;1.85;;;1.35;;
51862;SDS011;37900;52.996;6.278;2023-03-23T01:25:18;2.03;;;1.33;;
51862;SDS011;37900;52.996;6.278;2023-03-23T01:27:44;2.83;;;1.50;;
51862;SDS011;37900;52.996;6.278;2023-03-23T01:30:10;2.35;;;1.45;;
51862;SDS011;37900;52.996;6.278;2023-03-23T01:32:37;2.60;;;1.25;;
51862;SDS011;37900;52.996;6.278;2023-03-23T01:35:03;2.53;;;1.40;;
51862;SDS011;37900;52.996;6.278;2023-03-23T01:37:30;1.98;;;1.08;;
51862;SDS011;37900;52.996;6.278;2023-03-23T01:39:56;3.00;;;1.83;;
51862;SDS011;37900;52.996;6.278;2023-03-23T01:42:26;2.78;;;1.50;;
51862;SDS011;37900;52.996;6.278;2023-03-23T01:47:56;2.25;;;1.40;;
51862;SDS011;37900;52.996;6.278;2023-03-23T01:50:24;1.80;;;1.20;;
51862;SDS011;37900;52.996;6.278;2023-03-23T01:52:52;2.80;;;1.35;;
51862;SDS011;37900;52.996;6.278;2023-03-23T01:55:20;3.17;;;1.50;;
51862;SDS011;37900;52.996;6.278;2023-03-23T01:57:47;2.83;;;1.13;;
51862;SDS011;37900;52.996;6.278;2023-03-23T02:00:13;2.33;;;1.30;;
51862;SDS011;37900;52.996;6.278;2023-03-23T02:05:13;2.95;;;1.50;;
51862;SDS011;37900;52.996;6.278;2023-03-23T02:07:42;2.65;;;1.42;;
51862;SDS011;37900;52.996;6.278;2023-03-23T02:10:10;2.22;;;1.38;;
51862;SDS011;37900;52.996;6.278;2023-03-23T02:12:36;3.50;;;1.50;;
51862;SDS011;37900;52.996;6.278;2023-03-23T02:15:01;1.65;;;1.48;;
51862;SDS011;37900;52.996;6.278;2023-03-23T02:28:49;1.75;;;1.17;;
51862;SDS011;37900;52.996;6.278;2023-03-23T02:31:56;3.05;;;1.65;;
51862;SDS011;37900;52.996;6.278;2023-03-23T02:37:27;1.35;;;1.25;;
51862;SDS011;37900;52.996;6.278;2023-03-23T02:40:17;3.13;;;1.40;;
51862;SDS011;37900;52.996;6.278;2023-03-23T02:42:49;1.15;;;1.02;;
51862;SDS011;37900;52.996;6.278;2023-03-23T02:45:19;1.52;;;1.20;;
51862;SDS011;37900;52.996;6.278;2023-03-23T02:47:48;2.92;;;1.40;;
51862;SDS011;37900;52.996;6.278;2023-03-23T02:50:16;2.03;;;1.08;;
51862;SDS011;37900;52.996;6.278;2023-03-23T02:52:45;1.65;;;1.02;;
51862;SDS011;37900;52.996;6.278;2023-03-23T02:55:13;2.15;;;1.58;;
51862;SDS011;37900;52.996;6.278;2023-03-23T02:57:41;2.00;;;1.30;;
51862;SDS011;37900;52.996;6.278;2023-03-23T03:00:10;3.60;;;1.33;;
51862;SDS011;37900;52.996;6.278;2023-03-23T03:02:39;2.10;;;1.60;;
51862;SDS011;37900;52.996;6.278;2023-03-23T03:14:38;1.55;;;1.13;;
51862;SDS011;37900;52.996;6.278;2023-03-23T03:19:27;1.85;;;1.27;;
51862;SDS011;37900;52.996;6.278;2023-03-23T03:21:56;2.38;;;1.23;;
51862;SDS011;37900;52.996;6.278;2023-03-23T03:26:52;1.92;;;1.20;;
51862;SDS011;37900;52.996;6.278;2023-03-23T03:29:23;2.65;;;1.73;;
51862;SDS011;37900;52.996;6.278;2023-03-23T03:31:55;2.30;;;1.75;;
51862;SDS011;37900;52.996;6.278;2023-03-23T03:34:23;2.10;;;1.17;;
51862;SDS011;37900;52.996;6.278;2023-03-23T03:36:50;1.17;;;1.10;;
51862;SDS011;37900;52.996;6.278;2023-03-23T03:39:18;1.48;;;1.15;;
51862;SDS011;37900;52.996;6.278;2023-03-23T03:41:47;2.22;;;1.55;;
51862;SDS011;37900;52.996;6.278;2023-03-23T03:44:13;1.85;;;1.10;;
51862;SDS011;37900;52.996;6.278;2023-03-23T03:46:40;2.03;;;1.08;;
51862;SDS011;37900;52.996;6.278;2023-03-23T03:49:06;1.60;;;1.10;;
51862;SDS011;37900;52.996;6.278;2023-03-23T03:51:33;1.27;;;0.90;;
51862;SDS011;37900;52.996;6.278;2023-03-23T03:54:00;1.50;;;1.10;;
51862;SDS011;37900;52.996;6.278;2023-03-23T03:56:26;1.33;;;1.23;;
51862;SDS011;37900;52.996;6.278;2023-03-23T03:58:52;2.15;;;1.08;;
51862;SDS011;37900;52.996;6.278;2023-03-23T04:01:19;1.85;;;1.15;;
51862;SDS011;37900;52.996;6.278;2023-03-23T04:03:49;1.90;;;1.27;;
51862;SDS011;37900;52.996;6.278;2023-03-23T04:06:16;1.63;;;1.13;;
51862;SDS011;37900;52.996;6.278;2023-03-23T04:08:42;1.67;;;1.48;;
51862;SDS011;37900;52.996;6.278;2023-03-23T04:11:10;2.05;;;1.20;;
51862;SDS011;37900;52.996;6.278;2023-03-23T04:13:38;1.38;;;0.95;;
51862;SDS011;37900;52.996;6.278;2023-03-23T04:16:05;1.45;;;1.17;;
51862;SDS011;37900;52.996;6.278;2023-03-23T04:18:32;2.50;;;1.08;;
51862;SDS011;37900;52.996;6.278;2023-03-23T04:20:59;1.75;;;1.42;;
51862;SDS011;37900;52.996;6.278;2023-03-23T04:23:26;1.83;;;1.20;;
51862;SDS011;37900;52.996;6.278;2023-03-23T04:25:55;2.42;;;1.20;;
51862;SDS011;37900;52.996;6.278;2023-03-23T04:28:26;1.83;;;1.25;;
51862;SDS011;37900;52.996;6.278;2023-03-23T04:30:52;2.20;;;1.15;;
51862;SDS011;37900;52.996;6.278;2023-03-23T04:33:19;1.02;;;0.90;;
51862;SDS011;37900;52.996;6.278;2023-03-23T04:38:13;2.38;;;1.30;;
51862;SDS011;37900;52.996;6.278;2023-03-23T04:40:41;2.47;;;1.42;;
51862;SDS011;37900;52.996;6.278;2023-03-23T04:43:09;2.38;;;1.35;;
51862;SDS011;37900;52.996;6.278;2023-03-23T04:45:37;1.30;;;1.10;;
51862;SDS011;37900;52.996;6.278;2023-03-23T04:48:06;1.73;;;1.20;;
51862;SDS011;37900;52.996;6.278;2023-03-23T04:50:33;1.90;;;1.20;;
51862;SDS011;37900;52.996;6.278;2023-03-23T04:53:00;1.77;;;1.17;;
51862;SDS011;37900;52.996;6.278;2023-03-23T04:55:34;1.35;;;1.10;;
51862;SDS011;37900;52.996;6.278;2023-03-23T04:58:02;1.15;;;0.90;;
51862;SDS011;37900;52.996;6.278;2023-03-23T05:00:28;1.27;;;0.93;;
51862;SDS011;37900;52.996;6.278;2023-03-23T05:02:55;1.20;;;1.05;;
51862;SDS011;37900;52.996;6.278;2023-03-23T05:05:21;1.73;;;1.05;;
51862;SDS011;37900;52.996;6.278;2023-03-23T05:07:48;1.90;;;1.10;;
51862;SDS011;37900;52.996;6.278;2023-03-23T05:10:14;1.67;;;1.08;;
51862;SDS011;37900;52.996;6.278;2023-03-23T05:12:41;2.38;;;1.00;;
51862;SDS011;37900;52.996;6.278;2023-03-23T05:15:08;1.50;;;0.70;;
51862;SDS011;37900;52.996;6.278;2023-03-23T05:17:35;1.30;;;1.05;;
51862;SDS011;37900;52.996;6.278;2023-03-23T05:20:01;1.77;;;1.10;;
51862;SDS011;37900;52.996;6.278;2023-03-23T05:22:34;1.98;;;1.20;;
51862;SDS011;37900;52.996;6.278;2023-03-23T05:25:01;1.10;;;0.73;;
51862;SDS011;37900;52.996;6.278;2023-03-23T05:27:28;1.83;;;1.10;;
51862;SDS011;37900;52.996;6.278;2023-03-23T05:29:56;1.42;;;1.05;;
51862;SDS011;37900;52.996;6.278;2023-03-23T05:32:27;1.42;;;0.95;;
51862;SDS011;37900;52.996;6.278;2023-03-23T05:34:56;0.73;;;0.70;;
51862;SDS011;37900;52.996;6.278;2023-03-23T05:37:26;1.77;;;1.23;;
51862;SDS011;37900;52.996;6.278;2023-03-23T05:40:00;2.17;;;1.10;;
51862;SDS011;37900;52.996;6.278;2023-03-23T05:42:30;1.27;;;0.90;;
51862;SDS011;37900;52.996;6.278;2023-03-23T05:45:00;1.05;;;0.85;;
51862;SDS011;37900;52.996;6.278;2023-03-23T05:47:26;1.05;;;0.80;;
51862;SDS011;37900;52.996;6.278;2023-03-23T05:49:52;1.33;;;1.15;;
51862;SDS011;37900;52.996;6.278;2023-03-23T05:52:18;1.55;;;0.90;;
51862;SDS011;37900;52.996;6.278;2023-03-23T05:54:44;1.58;;;1.10;;
51862;SDS011;37900;52.996;6.278;2023-03-23T05:57:10;1.00;;;0.90;;
51862;SDS011;37900;52.996;6.278;2023-03-23T05:59:36;1.45;;;0.90;;
51862;SDS011;37900;52.996;6.278;2023-03-23T06:02:02;1.75;;;1.15;;
51862;SDS011;37900;52.996;6.278;2023-03-23T06:04:30;1.40;;;0.98;;
51862;SDS011;37900;52.996;6.278;2023-03-23T06:06:59;1.58;;;1.10;;
51862;SDS011;37900;52.996;6.278;2023-03-23T06:09:27;2.58;;;1.02;;
51862;SDS011;37900;52.996;6.278;2023-03-23T06:11:53;0.90;;;0.80;;
51862;SDS011;37900;52.996;6.278;2023-03-23T06:14:19;1.73;;;1.05;;
51862;SDS011;37900;52.996;6.278;2023-03-23T06:16:46;1.65;;;0.93;;
51862;SDS011;37900;52.996;6.278;2023-03-23T06:19:12;1.38;;;0.90;;
51862;SDS011;37900;52.996;6.278;2023-03-23T06:21:38;2.42;;;0.75;;
51862;SDS011;37900;52.996;6.278;2023-03-23T06:24:03;1.60;;;1.10;;
51862;SDS011;37900;52.996;6.278;2023-03-23T06:26:31;1.48;;;1.20;;
51862;SDS011;37900;52.996;6.278;2023-03-23T06:29:00;1.55;;;1.00;;
51862;SDS011;37900;52.996;6.278;2023-03-23T06:31:26;1.77;;;1.13;;
51862;SDS011;37900;52.996;6.278;2023-03-23T06:33:52;1.08;;;0.90;;
51862;SDS011;37900;52.996;6.278;2023-03-23T06:36:18;2.72;;;1.27;;
51862;SDS011;37900;52.996;6.278;2023-03-23T06:38:44;2.50;;;1.23;;
51862;SDS011;37900;52.996;6.278;2023-03-23T06:41:10;2.63;;;1.33;;
51862;SDS011;37900;52.996;6.278;2023-03-23T06:43:36;2.22;;;1.33;;
51862;SDS011;37900;52.996;6.278;2023-03-23T06:46:04;1.60;;;1.10;;
51862;SDS011;37900;52.996;6.278;2023-03-23T06:48:31;2.45;;;0.98;;
51862;SDS011;37900;52.996;6.278;2023-03-23T06:50:57;1.65;;;0.88;;
51862;SDS011;37900;52.996;6.278;2023-03-23T06:53:23;2.28;;;1.50;;
51862;SDS011;37900;52.996;6.278;2023-03-23T06:55:49;1.75;;;1.17;;
51862;SDS011;37900;52.996;6.278;2023-03-23T06:58:15;1.53;;;1.00;;
51862;SDS011;37900;52.996;6.278;2023-03-23T07:00:41;1.27;;;0.93;;
51862;SDS011;37900;52.996;6.278;2023-03-23T07:03:08;1.45;;;1.10;;
51862;SDS011;37900;52.996;6.278;2023-03-23T07:05:33;1.73;;;0.90;;
51862;SDS011;37900;52.996;6.278;2023-03-23T07:08:00;1.70;;;1.20;;
51862;SDS011;37900;52.996;6.278;2023-03-23T07:10:27;1.45;;;1.05;;
51862;SDS011;37900;52.996;6.278;2023-03-23T07:12:53;1.65;;;1.10;;
51862;SDS011;37900;52.996;6.278;2023-03-23T07:15:19;3.30;;;1.45;;
51862;SDS011;37900;52.996;6.278;2023-03-23T07:17:44;1.70;;;1.00;;
51862;SDS011;37900;52.996;6.278;2023-03-23T07:20:12;2.00;;;1.05;;
51862;SDS011;37900;52.996;6.278;2023-03-23T07:22:39;1.60;;;1.25;;
51862;SDS011;37900;52.996;6.278;2023-03-23T07:25:05;1.95;;;0.95;;
51862;SDS011;37900;52.996;6.278;2023-03-23T07:27:31;1.35;;;1.08;;
51862;SDS011;37900;52.996;6.278;2023-03-23T07:29:57;2.53;;;1.15;;
51862;SDS011;37900;52.996;6.278;2023-03-23T07:32:23;1.83;;;1.15;;
51862;SDS011;37900;52.996;6.278;2023-03-23T07:34:49;2.73;;;1.67;;
51862;SDS011;37900;52.996;6.278;2023-03-23T07:37:15;3.35;;;1.58;;
51862;SDS011;37900;52.996;6.278;2023-03-23T07:39:42;4.30;;;1.40;;
51862;SDS011;37900;52.996;6.278;2023-03-23T07:42:08;4.60;;;1.38;;
51862;SDS011;37900;52.996;6.278;2023-03-23T07:44:34;5.25;;;1.80;;
51862;SDS011;37900;52.996;6.278;2023-03-23T07:47:00;3.75;;;1.70;;
51862;SDS011;37900;52.996;6.278;2023-03-23T07:49:26;3.00;;;1.63;;
51862;SDS011;37900;52.996;6.278;2023-03-23T07:51:52;3.45;;;2.00;;
51862;SDS011;37900;52.996;6.278;2023-03-23T07:54:18;2.67;;;1.40;;
51862;SDS011;37900;52.996;6.278;2023-03-23T07:56:43;3.40;;;2.20;;
51862;SDS011;37900;52.996;6.278;2023-03-23T07:59:10;3.45;;;1.45;;
51862;SDS011;37900;52.996;6.278;2023-03-23T08:01:37;2.63;;;1.50;;
51862;SDS011;37900;52.996;6.278;2023-03-23T08:04:04;2.00;;;1.55;;
51862;SDS011;37900;52.996;6.278;2023-03-23T08:06:31;2.63;;;1.80;;
51862;SDS011;37900;52.996;6.278;2023-03-23T08:08:58;3.42;;;1.90;;
51862;SDS011;37900;52.996;6.278;2023-03-23T08:11:25;4.57;;;1.87;;
51862;SDS011;37900;52.996;6.278;2023-03-23T08:13:51;5.03;;;1.70;;
51862;SDS011;37900;52.996;6.278;2023-03-23T08:16:18;4.10;;;1.50;;
51862;SDS011;37900;52.996;6.278;2023-03-23T08:18:45;4.28;;;1.65;;
51862;SDS011;37900;52.996;6.278;2023-03-23T08:21:11;3.17;;;1.92;;
51862;SDS011;37900;52.996;6.278;2023-03-23T08:23:38;3.60;;;1.60;;
51862;SDS011;37900;52.996;6.278;2023-03-23T08:26:07;2.33;;;1.42;;
51862;SDS011;37900;52.996;6.278;2023-03-23T08:28:34;7.30;;;1.92;;
51862;SDS011;37900;52.996;6.278;2023-03-23T08:31:05;3.85;;;1.40;;
51862;SDS011;37900;52.996;6.278;2023-03-23T08:33:35;4.30;;;1.60;;
51862;SDS011;37900;52.996;6.278;2023-03-23T08:36:04;3.92;;;2.17;;
51862;SDS011;37900;52.996;6.278;2023-03-23T08:38:31;7.60;;;2.38;;
51862;SDS011;37900;52.996;6.278;2023-03-23T08:40:58;4.95;;;2.55;;
51862;SDS011;37900;52.996;6.278;2023-03-23T08:43:25;5.15;;;3.05;;
51862;SDS011;37900;52.996;6.278;2023-03-23T08:45:52;6.28;;;2.58;;
51862;SDS011;37900;52.996;6.278;2023-03-23T08:48:19;4.83;;;2.80;;
51862;SDS011;37900;52.996;6.278;2023-03-23T08:50:45;4.35;;;2.40;;
51862;SDS011;37900;52.996;6.278;2023-03-23T08:53:11;4.45;;;2.42;;
51862;SDS011;37900;52.996;6.278;2023-03-23T08:55:37;4.53;;;2.20;;
51862;SDS011;37900;52.996;6.278;2023-03-23T09:00:30;5.22;;;2.35;;
51862;SDS011;37900;52.996;6.278;2023-03-23T09:02:57;7.65;;;2.42;;
51862;SDS011;37900;52.996;6.278;2023-03-23T09:05:24;5.75;;;2.22;;
51862;SDS011;37900;52.996;6.278;2023-03-23T09:07:52;3.45;;;1.80;;
51862;SDS011;37900;52.996;6.278;2023-03-23T09:10:20;3.33;;;1.95;;
51862;SDS011;37900;52.996;6.278;2023-03-23T09:12:47;4.43;;;2.20;;
51862;SDS011;37900;52.996;6.278;2023-03-23T09:15:15;5.13;;;2.42;;
51862;SDS011;37900;52.996;6.278;2023-03-23T09:17:43;4.88;;;2.08;;
51862;SDS011;37900;52.996;6.278;2023-03-23T09:20:11;5.57;;;2.10;;
51862;SDS011;37900;52.996;6.278;2023-03-23T09:22:45;4.20;;;2.15;;
51862;SDS011;37900;52.996;6.278;2023-03-23T09:25:14;4.50;;;1.90;;
51862;SDS011;37900;52.996;6.278;2023-03-23T09:27:44;4.63;;;1.92;;
51862;SDS011;37900;52.996;6.278;2023-03-23T09:30:12;5.32;;;2.20;;
51862;SDS011;37900;52.996;6.278;2023-03-23T09:32:39;6.00;;;2.65;;
51862;SDS011;37900;52.996;6.278;2023-03-23T09:35:08;3.80;;;2.13;;
51862;SDS011;37900;52.996;6.278;2023-03-23T09:40:04;3.85;;;2.13;;
51862;SDS011;37900;52.996;6.278;2023-03-23T09:45:29;5.10;;;2.17;;
51862;SDS011;37900;52.996;6.278;2023-03-23T09:50:51;5.10;;;1.70;;
51862;SDS011;37900;52.996;6.278;2023-03-23T09:53:23;5.05;;;2.13;;
51862;SDS011;37900;52.996;6.278;2023-03-23T09:56:00;5.38;;;2.15;;
51862;SDS011;37900;52.996;6.278;2023-03-23T09:58:29;3.85;;;1.90;;
51862;SDS011;37900;52.996;6.278;2023-03-23T10:03:41;3.67;;;2.13;;
51862;SDS011;37900;52.996;6.278;2023-03-23T10:06:09;7.40;;;2.50;;
51862;SDS011;37900;52.996;6.278;2023-03-23T10:08:39;7.30;;;2.40;;
51862;SDS011;37900;52.996;6.278;2023-03-23T10:14:19;4.40;;;2.05;;
51862;SDS011;37900;52.996;6.278;2023-03-23T10:22:09;5.80;;;2.20;;
51862;SDS011;37900;52.996;6.278;2023-03-23T10:24:50;4.88;;;2.22;;
51862;SDS011;37900;52.996;6.278;2023-03-23T10:27:27;4.70;;;1.98;;
51862;SDS011;37900;52.996;6.278;2023-03-23T10:33:04;4.90;;;2.10;;
51862;SDS011;37900;52.996;6.278;2023-03-23T10:35:53;6.30;;;1.77;;
51862;SDS011;37900;52.996;6.278;2023-03-23T10:38:29;5.75;;;2.15;;
51862;SDS011;37900;52.996;6.278;2023-03-23T10:41:18;4.78;;;2.00;;
51862;SDS011;37900;52.996;6.278;2023-03-23T10:43:45;4.13;;;2.03;;
51862;SDS011;37900;52.996;6.278;2023-03-23T10:46:27;4.75;;;1.92;;
51862;SDS011;37900;52.996;6.278;2023-03-23T10:49:04;4.60;;;2.50;;
51862;SDS011;37900;52.996;6.278;2023-03-23T10:51:35;4.07;;;1.83;;
51862;SDS011;37900;52.996;6.278;2023-03-23T10:54:04;3.58;;;2.25;;
51862;SDS011;37900;52.996;6.278;2023-03-23T10:56:36;5.88;;;2.13;;
51862;SDS011;37900;52.996;6.278;2023-03-23T10:59:14;5.28;;;2.13;;
51862;SDS011;37900;52.996;6.278;2023-03-23T11:01:42;6.28;;;2.25;;
51862;SDS011;37900;52.996;6.278;2023-03-23T11:04:11;5.60;;;2.20;;
51862;SDS011;37900;52.996;6.278;2023-03-23T11:06:42;3.42;;;2.03;;
51862;SDS011;37900;52.996;6.278;2023-03-23T11:09:15;4.13;;;1.95;;
51862;SDS011;37900;52.996;6.278;2023-03-23T11:11:48;4.03;;;1.90;;
51862;SDS011;37900;52.996;6.278;2023-03-23T11:16:57;3.45;;;1.88;;
51862;SDS011;37900;52.996;6.278;2023-03-23T11:19:27;3.42;;;2.13;;
51862;SDS011;37900;52.996;6.278;2023-03-23T11:24:36;5.00;;;2.28;;
51862;SDS011;37900;52.996;6.278;2023-03-23T11:27:06;5.18;;;2.47;;
51862;SDS011;37900;52.996;6.278;2023-03-23T11:29:34;7.25;;;2.13;;
51862;SDS011;37900;52.996;6.278;2023-03-23T11:32:06;3.92;;;2.03;;
51862;SDS011;37900;52.996;6.278;2023-03-23T11:34:44;8.32;;;2.75;;
51862;SDS011;37900;52.996;6.278;2023-03-23T11:37:38;5.55;;;2.00;;
51862;SDS011;37900;52.996;6.278;2023-03-23T11:42:38;4.22;;;1.65;;
51862;SDS011;37900;52.996;6.278;2023-03-23T11:45:19;6.20;;;2.10;;
51862;SDS011;37900;52.996;6.278;2023-03-23T11:47:59;5.18;;;1.90;;
51862;SDS011;37900;52.996;6.278;2023-03-23T11:50:31;4.30;;;2.05;;
51862;SDS011;37900;52.996;6.278;2023-03-23T11:58:20;5.05;;;2.00;;
51862;SDS011;37900;52.996;6.278;2023-03-23T12:03:16;4.82;;;1.70;;
51862;SDS011;37900;52.996;6.278;2023-03-23T12:08:43;7.07;;;1.95;;
51862;SDS011;37900;52.996;6.278;2023-03-23T12:14:16;5.35;;;1.88;;
51862;SDS011;37900;52.996;6.278;2023-03-23T12:25:16;2.78;;;1.70;;
51862;SDS011;37900;52.996;6.278;2023-03-23T12:30:46;3.53;;;2.00;;
51862;SDS011;37900;52.996;6.278;2023-03-23T12:36:18;5.10;;;2.30;;
51862;SDS011;37900;52.996;6.278;2023-03-23T12:39:08;4.75;;;2.05;;
51862;SDS011;37900;52.996;6.278;2023-03-23T12:44:40;6.65;;;2.10;;
51862;SDS011;37900;52.996;6.278;2023-03-23T12:49:52;9.18;;;2.40;;
51862;SDS011;37900;52.996;6.278;2023-03-23T12:52:29;8.77;;;2.00;;
51862;SDS011;37900;52.996;6.278;2023-03-23T12:55:07;6.72;;;2.15;;
51862;SDS011;37900;52.996;6.278;2023-03-23T13:03:25;8.35;;;1.95;;
51862;SDS011;37900;52.996;6.278;2023-03-23T13:08:57;4.97;;;2.33;;
51862;SDS011;37900;52.996;6.278;2023-03-23T13:12:02;9.57;;;2.30;;
51862;SDS011;37900;52.996;6.278;2023-03-23T13:14:32;6.75;;;2.72;;
51862;SDS011;37900;52.996;6.278;2023-03-23T13:22:55;9.70;;;2.83;;
51862;SDS011;37900;52.996;6.278;2023-03-23T13:28:32;10.30;;;2.97;;
51862;SDS011;37900;52.996;6.278;2023-03-23T13:31:14;9.90;;;2.97;;
51862;SDS011;37900;52.996;6.278;2023-03-23T13:33:45;7.53;;;2.67;;
51862;SDS011;37900;52.996;6.278;2023-03-23T13:36:14;7.20;;;2.85;;
51862;SDS011;37900;52.996;6.278;2023-03-23T13:38:45;12.43;;;3.17;;
51862;SDS011;37900;52.996;6.278;2023-03-23T13:41:14;4.22;;;2.38;;
51862;SDS011;37900;52.996;6.278;2023-03-23T13:43:42;5.88;;;2.35;;
51862;SDS011;37900;52.996;6.278;2023-03-23T13:48:51;6.55;;;2.35;;
51862;SDS011;37900;52.996;6.278;2023-03-23T13:51:36;7.88;;;2.33;;
51862;SDS011;37900;52.996;6.278;2023-03-23T13:54:19;5.38;;;2.20;;
51862;SDS011;37900;52.996;6.278;2023-03-23T13:56:58;4.18;;;1.92;;
51862;SDS011;37900;52.996;6.278;2023-03-23T14:01:52;7.50;;;2.33;;
51862;SDS011;37900;52.996;6.278;2023-03-23T14:04:23;8.95;;;2.83;;
51862;SDS011;37900;52.996;6.278;2023-03-23T14:06:56;6.90;;;2.55;;
51862;SDS011;37900;52.996;6.278;2023-03-23T14:09:42;6.30;;;2.50;;
51862;SDS011;37900;52.996;6.278;2023-03-23T14:12:17;6.97;;;2.30;;
51862;SDS011;37900;52.996;6.278;2023-03-23T14:14:50;7.90;;;2.92;;
51862;SDS011;37900;52.996;6.278;2023-03-23T14:17:24;6.43;;;2.30;;
51862;SDS011;37900;52.996;6.278;2023-03-23T14:19:52;11.23;;;2.38;;
51862;SDS011;37900;52.996;6.278;2023-03-23T14:24:50;6.10;;;2.92;;
51862;SDS011;37900;52.996;6.278;2023-03-23T14:27:19;6.47;;;2.70;;
51862;SDS011;37900;52.996;6.278;2023-03-23T14:29:46;8.02;;;2.67;;
51862;SDS011;37900;52.996;6.278;2023-03-23T14:34:51;8.88;;;2.47;;
51862;SDS011;37900;52.996;6.278;2023-03-23T14:37:18;8.50;;;2.75;;
51862;SDS011;37900;52.996;6.278;2023-03-23T14:39:46;5.78;;;2.30;;
51862;SDS011;37900;52.996;6.278;2023-03-23T14:42:15;5.10;;;2.75;;
51862;SDS011;37900;52.996;6.278;2023-03-23T14:44:43;8.10;;;2.38;;
51862;SDS011;37900;52.996;6.278;2023-03-23T14:47:25;10.30;;;2.65;;
51862;SDS011;37900;52.996;6.278;2023-03-23T14:49:57;6.82;;;2.47;;
51862;SDS011;37900;52.996;6.278;2023-03-23T14:52:25;6.22;;;2.50;;
51862;SDS011;37900;52.996;6.278;2023-03-23T14:55:18;6.13;;;2.47;;
51862;SDS011;37900;52.996;6.278;2023-03-23T14:57:47;6.28;;;2.60;;
51862;SDS011;37900;52.996;6.278;2023-03-23T15:00:19;9.70;;;2.33;;
51862;SDS011;37900;52.996;6.278;2023-03-23T15:02:54;7.05;;;2.15;;
51862;SDS011;37900;52.996;6.278;2023-03-23T15:07:56;6.72;;;2.20;;
51862;SDS011;37900;52.996;6.278;2023-03-23T15:10:27;11.93;;;3.08;;
51862;SDS011;37900;52.996;6.278;2023-03-23T15:12:53;8.73;;;1.80;;
51862;SDS011;37900;52.996;6.278;2023-03-23T15:17:56;6.90;;;2.58;;
51862;SDS011;37900;52.996;6.278;2023-03-23T15:22:51;7.50;;;2.47;;
51862;SDS011;37900;52.996;6.278;2023-03-23T15:25:18;6.07;;;2.25;;
51862;SDS011;37900;52.996;6.278;2023-03-23T15:27:54;6.07;;;2.22;;
51862;SDS011;37900;52.996;6.278;2023-03-23T15:32:47;13.00;;;2.65;;
51862;SDS011;37900;52.996;6.278;2023-03-23T15:35:16;7.30;;;2.00;;
51862;SDS011;37900;52.996;6.278;2023-03-23T15:37:46;4.57;;;2.22;;
51862;SDS011;37900;52.996;6.278;2023-03-23T15:40:33;6.10;;;2.38;;
51862;SDS011;37900;52.996;6.278;2023-03-23T15:48:18;6.68;;;2.03;;
51862;SDS011;37900;52.996;6.278;2023-03-23T15:50:45;5.72;;;1.88;;
51862;SDS011;37900;52.996;6.278;2023-03-23T15:53:26;5.53;;;1.85;;
51862;SDS011;37900;52.996;6.278;2023-03-23T15:55:55;3.60;;;2.17;;
51862;SDS011;37900;52.996;6.278;2023-03-23T15:58:21;4.53;;;1.88;;
51862;SDS011;37900;52.996;6.278;2023-03-23T16:00:46;6.28;;;2.80;;
51862;SDS011;37900;52.996;6.278;2023-03-23T16:03:20;3.88;;;1.80;;
51862;SDS011;37900;52.996;6.278;2023-03-23T16:05:57;6.53;;;1.92;;
51862;SDS011;37900;52.996;6.278;2023-03-23T16:08:27;5.75;;;2.17;;
51862;SDS011;37900;52.996;6.278;2023-03-23T16:10:53;4.70;;;2.45;;
51862;SDS011;37900;52.996;6.278;2023-03-23T16:13:19;5.57;;;1.88;;
51862;SDS011;37900;52.996;6.278;2023-03-23T16:15:45;4.00;;;1.98;;
51862;SDS011;37900;52.996;6.278;2023-03-23T16:18:18;6.43;;;2.03;;
51862;SDS011;37900;52.996;6.278;2023-03-23T16:20:46;4.05;;;1.67;;
51862;SDS011;37900;52.996;6.278;2023-03-23T16:23:12;4.47;;;1.67;;
51862;SDS011;37900;52.996;6.278;2023-03-23T16:25:38;4.35;;;2.00;;
51862;SDS011;37900;52.996;6.278;2023-03-23T16:28:04;3.38;;;1.85;;
51862;SDS011;37900;52.996;6.278;2023-03-23T16:30:32;5.40;;;2.00;;
51862;SDS011;37900;52.996;6.278;2023-03-23T16:32:59;4.93;;;2.25;;
51862;SDS011;37900;52.996;6.278;2023-03-23T16:35:25;4.95;;;1.67;;
51862;SDS011;37900;52.996;6.278;2023-03-23T16:37:52;2.90;;;1.77;;
51862;SDS011;37900;52.996;6.278;2023-03-23T16:40:20;5.82;;;2.17;;
51862;SDS011;37900;52.996;6.278;2023-03-23T16:42:46;6.05;;;2.20;;
51862;SDS011;37900;52.996;6.278;2023-03-23T16:45:13;5.07;;;2.05;;
51862;SDS011;37900;52.996;6.278;2023-03-23T16:47:40;6.72;;;2.03;;
51862;SDS011;37900;52.996;6.278;2023-03-23T16:50:08;2.88;;;1.40;;
51862;SDS011;37900;52.996;6.278;2023-03-23T16:52:38;4.18;;;1.70;;
51862;SDS011;37900;52.996;6.278;2023-03-23T16:57:31;4.93;;;2.08;;
51862;SDS011;37900;52.996;6.278;2023-03-23T17:00:12;6.30;;;2.20;;
51862;SDS011;37900;52.996;6.278;2023-03-23T17:02:41;7.05;;;1.90;;
51862;SDS011;37900;52.996;6.278;2023-03-23T17:05:08;6.55;;;1.90;;
51862;SDS011;37900;52.996;6.278;2023-03-23T17:07:35;18.35;;;14.10;;
51862;SDS011;37900;52.996;6.278;2023-03-23T17:10:02;12.85;;;9.93;;
51862;SDS011;37900;52.996;6.278;2023-03-23T17:12:30;16.10;;;12.35;;
51862;SDS011;37900;52.996;6.278;2023-03-23T17:14:55;15.13;;;10.05;;
51862;SDS011;37900;52.996;6.278;2023-03-23T17:17:22;13.00;;;8.82;;
51862;SDS011;37900;52.996;6.278;2023-03-23T17:19:48;9.40;;;5.78;;
51862;SDS011;37900;52.996;6.278;2023-03-23T17:22:14;8.93;;;4.78;;
51862;SDS011;37900;52.996;6.278;2023-03-23T17:24:40;7.22;;;3.90;;
51862;SDS011;37900;52.996;6.278;2023-03-23T17:27:06;7.38;;;2.80;;
51862;SDS011;37900;52.996;6.278;2023-03-23T17:29:32;5.85;;;3.40;;
51862;SDS011;37900;52.996;6.278;2023-03-23T17:31:58;10.73;;;3.53;;